createdAt,value
2018-02-19T00:00:24.945Z,38.41
2018-02-19T00:01:24.946Z,38.34
2018-02-19T00:02:24.951Z,38.06
2018-02-19T00:03:24.951Z,38.28
2018-02-19T00:04:24.946Z,38.18
2018-02-19T00:05:24.938Z,38.39
2018-02-19T00:06:24.940Z,38.28
2018-02-19T00:07:24.956Z,38.35
2018-02-19T00:08:24.953Z,38.37
2018-02-19T00:09:24.943Z,38.54
2018-02-19T00:10:24.948Z,38.42
2018-02-19T00:11:24.952Z,38.3
2018-02-19T00:12:24.929Z,38.39
2018-02-19T00:13:24.940Z,38.32
2018-02-19T00:14:24.970Z,38.35
2018-02-19T00:15:24.959Z,38.33
2018-02-19T00:16:24.945Z,38.38
2018-02-19T00:17:24.972Z,38.38
2018-02-19T00:18:24.940Z,38.38
2018-02-19T00:19:24.934Z,38.4
2018-02-19T00:20:24.934Z,38.33
2018-02-19T00:21:25.038Z,38.32
2018-02-19T00:22:25.053Z,38.4
2018-02-19T00:23:24.928Z,38.38
2018-02-19T00:24:24.930Z,38.43
2018-02-19T00:25:24.973Z,38.41
2018-02-19T00:26:24.942Z,38.32
2018-02-19T00:27:24.818Z,38.42
2018-02-19T00:28:24.938Z,38.41
2018-02-19T00:29:24.937Z,38.42
2018-02-19T00:30:24.925Z,38.54
2018-02-19T00:31:24.938Z,38.39
2018-02-19T00:32:24.932Z,38.41
2018-02-19T00:33:24.929Z,38.43
2018-02-19T00:34:24.944Z,38.38
2018-02-19T00:35:24.935Z,38.37
2018-02-19T00:36:24.932Z,38.38
2018-02-19T00:37:24.937Z,38.36
2018-02-19T00:38:24.944Z,38.4
2018-02-19T00:39:24.961Z,38.34
2018-02-19T00:40:24.922Z,38.42
2018-02-19T00:41:24.938Z,38.38
2018-02-19T00:42:24.925Z,38.39
2018-02-19T00:43:24.928Z,38.35
2018-02-19T00:44:25.293Z,38.39
2018-02-19T00:45:24.938Z,38.38
2018-02-19T00:46:24.923Z,38.3
2018-02-19T00:47:24.933Z,38.45
2018-02-19T00:48:24.927Z,38.42
2018-02-19T00:49:24.953Z,38.48
2018-02-19T00:50:24.936Z,38.36
2018-02-19T00:51:24.923Z,38.33
2018-02-19T00:52:24.924Z,38.34
2018-02-19T00:53:24.929Z,38.36
2018-02-19T00:54:24.952Z,38.48
2018-02-19T00:55:24.926Z,38.38
2018-02-19T00:56:24.905Z,38.39
2018-02-19T00:57:24.921Z,38.42
2018-02-19T00:58:24.911Z,38.4
2018-02-19T00:59:24.931Z,38.34
2018-02-19T01:00:24.929Z,38.43
2018-02-19T01:01:24.920Z,38.46
2018-02-19T01:02:24.927Z,38.36
2018-02-19T01:03:24.907Z,38.42
2018-02-19T01:04:24.923Z,38.39
2018-02-19T01:05:24.956Z,38.37
2018-02-19T01:06:24.926Z,38.48
2018-02-19T01:07:24.915Z,38.46
2018-02-19T01:08:24.916Z,38.45
2018-02-19T01:09:24.938Z,38.36
2018-02-19T01:10:24.987Z,38.39
2018-02-19T01:11:24.937Z,38.47
2018-02-19T01:12:24.928Z,38.37
2018-02-19T01:13:24.934Z,38.38
2018-02-19T01:14:24.926Z,38.43
2018-02-19T01:15:24.942Z,38.36
2018-02-19T01:16:24.913Z,38.41
2018-02-19T01:17:24.935Z,38.43
2018-02-19T01:18:24.917Z,38.38
2018-02-19T01:19:24.919Z,38.36
2018-02-19T01:20:24.927Z,38.37
2018-02-19T01:21:24.924Z,38.42
2018-02-19T01:22:24.913Z,38.41
2018-02-19T01:23:24.917Z,38.38
2018-02-19T01:24:24.910Z,38.36
2018-02-19T01:25:24.908Z,38.43
2018-02-19T01:26:24.918Z,38.46
2018-02-19T01:27:24.910Z,38.44
2018-02-19T01:28:24.925Z,38.48
2018-02-19T01:29:24.928Z,38.35
2018-02-19T01:30:24.916Z,38.39
2018-02-19T01:31:24.909Z,38.34
2018-02-19T01:32:24.905Z,38.4
2018-02-19T01:33:24.927Z,38.46
2018-02-19T01:34:24.907Z,38.38
2018-02-19T01:35:24.930Z,38.4
2018-02-19T01:36:24.907Z,38.47
2018-02-19T01:37:24.931Z,38.44
2018-02-19T01:38:24.927Z,38.47
2018-02-19T01:39:24.925Z,38.43
2018-02-19T01:40:24.925Z,38.49
2018-02-19T01:41:24.923Z,38.38
2018-02-19T01:42:24.909Z,38.49
2018-02-19T01:43:24.916Z,38.49
2018-02-19T01:44:24.906Z,38.43
2018-02-19T01:45:24.960Z,38.37
2018-02-19T01:46:24.912Z,38.38
2018-02-19T01:47:24.925Z,38.49
2018-02-19T01:48:24.959Z,38.38
2018-02-19T01:49:24.907Z,38.4
2018-02-19T01:50:24.945Z,38.46
2018-02-19T01:51:24.907Z,38.37
2018-02-19T01:52:24.905Z,38.38
2018-02-19T01:53:24.902Z,38.36
2018-02-19T01:54:24.913Z,38.33
2018-02-19T01:55:24.912Z,38.38
2018-02-19T01:56:24.905Z,38.3
2018-02-19T01:57:24.920Z,38.3
2018-02-19T01:58:24.896Z,38.34
2018-02-19T01:59:24.903Z,38.3
2018-02-19T02:00:24.904Z,38.35
2018-02-19T02:01:24.907Z,38.29
2018-02-19T02:02:24.916Z,38.37
2018-02-19T02:03:24.897Z,38.25
2018-02-19T02:04:24.908Z,38.3
2018-02-19T02:05:24.918Z,38.34
2018-02-19T02:06:24.905Z,38.32
2018-02-19T02:07:24.904Z,38.3
2018-02-19T02:08:24.903Z,38.33
2018-02-19T02:09:24.904Z,38.3
2018-02-19T02:10:24.906Z,38.38
2018-02-19T02:11:24.898Z,38.32
2018-02-19T02:12:24.897Z,38.39
2018-02-19T02:13:24.896Z,38.41
2018-02-19T02:14:24.899Z,38.44
2018-02-19T02:15:24.894Z,38.43
2018-02-19T02:16:24.908Z,38.33
2018-02-19T02:17:24.908Z,38.37
2018-02-19T02:18:24.896Z,38.38
2018-02-19T02:19:24.901Z,38.29
2018-02-19T02:20:24.908Z,38.37
2018-02-19T02:21:24.930Z,38.31
2018-02-19T02:22:25.012Z,38.47
2018-02-19T02:23:24.886Z,38.32
2018-02-19T02:24:24.896Z,38.3
2018-02-19T02:25:24.921Z,38.37
2018-02-19T02:26:24.902Z,38.36
2018-02-19T02:27:24.911Z,38.3
2018-02-19T02:28:24.898Z,38.32
2018-02-19T02:29:24.888Z,38.34
2018-02-19T02:30:24.888Z,38.39
2018-02-19T02:31:24.895Z,38.25
2018-02-19T02:32:24.893Z,38.16
2018-02-19T02:33:25.004Z,38.31
2018-02-19T02:34:24.890Z,38.36
2018-02-19T02:35:24.891Z,38.34
2018-02-19T02:36:24.892Z,38.35
2018-02-19T02:37:24.940Z,38.29
2018-02-19T02:38:24.903Z,38.41
2018-02-19T02:39:24.888Z,38.41
2018-02-19T02:40:24.895Z,38.38
2018-02-19T02:41:25.003Z,38.25
2018-02-19T02:42:24.893Z,38.33
2018-02-19T02:43:24.899Z,38.38
2018-02-19T02:44:24.913Z,38.37
2018-02-19T02:45:24.883Z,38.29
2018-02-19T02:46:24.904Z,38.32
2018-02-19T02:47:24.893Z,38.39
2018-02-19T02:48:24.898Z,38.33
2018-02-19T02:49:24.988Z,38.34
2018-02-19T02:50:24.892Z,38.38
2018-02-19T02:51:24.935Z,38.33
2018-02-19T02:52:24.903Z,38.36
2018-02-19T02:53:24.883Z,38.2
2018-02-19T02:54:24.882Z,38.31
2018-02-19T02:55:24.873Z,38.45
2018-02-19T02:56:25.154Z,38.45
2018-02-19T02:57:24.880Z,38.44
2018-02-19T02:58:24.894Z,38.33
2018-02-19T02:59:24.877Z,38.3
2018-02-19T03:00:24.929Z,38.29
2018-02-19T03:01:24.894Z,38.3
2018-02-19T03:02:24.887Z,38.32
2018-02-19T03:03:24.888Z,38.41
2018-02-19T03:04:24.883Z,38.36
2018-02-19T03:05:24.872Z,38.31
2018-02-19T03:06:24.926Z,38.36
2018-02-19T03:07:24.873Z,38.35
2018-02-19T03:08:24.891Z,38.32
2018-02-19T03:09:24.880Z,38.38
2018-02-19T03:10:24.878Z,38.37
2018-02-19T03:11:24.905Z,38.38
2018-02-19T03:12:24.866Z,38.38
2018-02-19T03:13:24.878Z,38.27
2018-02-19T03:14:24.874Z,38.36
2018-02-19T03:15:24.874Z,38.29
2018-02-19T03:16:24.915Z,38.37
2018-02-19T03:17:24.900Z,38.34
2018-02-19T03:18:24.873Z,38.36
2018-02-19T03:19:24.869Z,38.36
2018-02-19T03:20:24.891Z,38.33
2018-02-19T03:21:24.892Z,38.34
2018-02-19T03:22:24.883Z,38.36
2018-02-19T03:23:24.866Z,38.41
2018-02-19T03:24:24.911Z,38.24
2018-02-19T03:25:24.920Z,38.45
2018-02-19T03:26:24.916Z,38.35
2018-02-19T03:27:24.889Z,38.5
2018-02-19T03:28:24.877Z,38.26
2018-02-19T03:29:24.864Z,38.41
2018-02-19T03:30:24.872Z,38.24
2018-02-19T03:31:24.908Z,38.32
2018-02-19T03:32:24.894Z,38.29
2018-02-19T03:33:24.886Z,38.52
2018-02-19T03:34:24.893Z,38.36
2018-02-19T03:35:24.932Z,38.43
2018-02-19T03:36:24.907Z,38.2
2018-02-19T03:37:24.895Z,38.38
2018-02-19T03:38:24.889Z,38.44
2018-02-19T03:39:24.908Z,38.38
2018-02-19T03:40:24.886Z,38.39
2018-02-19T03:41:25.167Z,38.37
2018-02-19T03:42:24.891Z,38.44
2018-02-19T03:43:24.889Z,38.39
2018-02-19T03:44:24.883Z,38.37
2018-02-19T03:45:24.911Z,38.41
2018-02-19T03:46:24.922Z,38.32
2018-02-19T03:47:24.890Z,38.42
2018-02-19T03:48:24.877Z,38.29
2018-02-19T03:49:24.886Z,38.33
2018-02-19T03:50:24.877Z,38.37
2018-02-19T03:51:24.887Z,38.43
2018-02-19T03:52:24.897Z,38.41
2018-02-19T03:53:24.894Z,38.44
2018-02-19T03:54:24.892Z,38.24
2018-02-19T03:55:24.887Z,38.47
2018-02-19T03:56:24.894Z,38.34
2018-02-19T03:57:24.913Z,38.21
2018-02-19T03:58:24.910Z,38.24
2018-02-19T03:59:24.879Z,38.34
2018-02-19T04:00:24.893Z,38.52
2018-02-19T04:01:24.888Z,38.28
2018-02-19T04:02:24.990Z,38.28
2018-02-19T04:03:24.888Z,38.37
2018-02-19T04:04:24.885Z,38.23
2018-02-19T04:05:24.880Z,38.34
2018-02-19T04:06:24.881Z,38.32
2018-02-19T04:07:24.907Z,38.41
2018-02-19T04:08:24.900Z,38.32
2018-02-19T04:09:24.881Z,38.27
2018-02-19T04:10:24.927Z,38.52
2018-02-19T04:11:24.861Z,38.32
2018-02-19T04:12:24.883Z,38.28
2018-02-19T04:13:24.911Z,38.35
2018-02-19T04:14:24.889Z,38.21
2018-02-19T04:15:24.897Z,38.46
2018-02-19T04:16:24.852Z,38.18
2018-02-19T04:17:24.857Z,38.36
2018-02-19T04:18:24.894Z,38.26
2018-02-19T04:19:24.892Z,38.4
2018-02-19T04:20:24.856Z,38.42
2018-02-19T04:21:24.866Z,38.48
2018-02-19T04:22:24.856Z,38.36
2018-02-19T04:23:24.978Z,38.32
2018-02-19T04:24:24.879Z,38.32
2018-02-19T04:25:24.871Z,38.25
2018-02-19T04:26:24.860Z,38.32
2018-02-19T04:27:24.860Z,38.27
2018-02-19T04:28:24.864Z,38.21
2018-02-19T04:29:24.861Z,38.28
2018-02-19T04:30:24.859Z,38.31
2018-02-19T04:31:24.896Z,38.38
2018-02-19T04:32:24.858Z,38.37
2018-02-19T04:33:24.844Z,38.3
2018-02-19T04:34:24.852Z,38.26
2018-02-19T04:35:24.866Z,38.32
2018-02-19T04:36:24.881Z,38.38
2018-02-19T04:37:24.859Z,38.37
2018-02-19T04:38:24.856Z,38.3
2018-02-19T04:39:24.844Z,38.28
2018-02-19T04:40:24.846Z,38.31
2018-02-19T04:41:24.842Z,38.29
2018-02-19T04:42:24.903Z,38.35
2018-02-19T04:43:24.864Z,38.28
2018-02-19T04:44:24.905Z,38.32
2018-02-19T04:45:24.868Z,38.33
2018-02-19T04:46:24.842Z,38.29
2018-02-19T04:47:24.861Z,38.26
2018-02-19T04:48:24.856Z,38.29
2018-02-19T04:49:24.842Z,38.32
2018-02-19T04:50:24.834Z,38.33
2018-02-19T04:51:24.849Z,38.29
2018-02-19T04:52:24.860Z,38.41
2018-02-19T04:53:24.849Z,38.3
2018-02-19T04:54:24.849Z,38.39
2018-02-19T04:55:24.841Z,38.35
2018-02-19T04:56:24.837Z,38.3
2018-02-19T04:57:24.862Z,38.37
2018-02-19T04:58:24.829Z,38.33
2018-02-19T04:59:24.860Z,38.26
2018-02-19T05:00:24.837Z,38.45
2018-02-19T05:01:24.850Z,38.2
2018-02-19T05:02:24.976Z,38.23
2018-02-19T05:03:24.841Z,38.18
2018-02-19T05:04:24.844Z,38.21
2018-02-19T05:05:24.845Z,38.19
2018-02-19T05:06:24.850Z,38.19
2018-02-19T05:07:24.857Z,38.22
2018-02-19T05:08:24.874Z,38.29
2018-02-19T05:09:24.872Z,38.38
2018-02-19T05:10:24.857Z,38.25
2018-02-19T05:11:24.838Z,38.43
2018-02-19T05:12:24.850Z,38.45
2018-02-19T05:13:24.849Z,38.42
2018-02-19T05:14:24.851Z,38.39
2018-02-19T05:15:24.838Z,38.45
2018-02-19T05:16:24.834Z,38.57
2018-02-19T05:17:24.836Z,38.5
2018-02-19T05:18:24.854Z,38.49
2018-02-19T05:19:24.850Z,38.52
2018-02-19T05:20:24.832Z,38.53
2018-02-19T05:21:24.849Z,38.5
2018-02-19T05:22:24.832Z,38.52
2018-02-19T05:23:24.826Z,38.46
2018-02-19T05:24:24.835Z,38.43
2018-02-19T05:25:24.823Z,38.41
2018-02-19T05:26:24.844Z,38.43
2018-02-19T05:27:24.834Z,38.36
2018-02-19T05:28:24.852Z,38.21
2018-02-19T05:29:24.826Z,38.32
2018-02-19T05:30:24.843Z,38.36
2018-02-19T05:31:24.826Z,38.32
2018-02-19T05:32:24.830Z,38.31
2018-02-19T05:33:24.838Z,38.3
2018-02-19T05:34:24.826Z,38.27
2018-02-19T05:35:24.833Z,38.27
2018-02-19T05:36:24.828Z,38.29
2018-02-19T05:37:24.847Z,38.32
2018-02-19T05:38:24.833Z,38.25
2018-02-19T05:39:24.825Z,38.34
2018-02-19T05:40:24.836Z,38.23
2018-02-19T05:41:24.833Z,38.28
2018-02-19T05:42:24.818Z,38.27
2018-02-19T05:43:24.843Z,38.25
2018-02-19T05:44:24.823Z,38.23
2018-02-19T05:45:24.838Z,38.32
2018-02-19T05:46:24.832Z,38.29
2018-02-19T05:47:24.817Z,38.28
2018-02-19T05:48:24.819Z,38.23
2018-02-19T05:49:24.827Z,38.24
2018-02-19T05:50:24.838Z,38.24
2018-02-19T05:51:24.837Z,38.21
2018-02-19T05:52:24.817Z,38.22
2018-02-19T05:53:24.838Z,38.33
2018-02-19T05:54:24.822Z,38.23
2018-02-19T05:55:24.840Z,38.28
2018-02-19T05:56:24.815Z,38.22
2018-02-19T05:57:24.830Z,38.23
2018-02-19T05:58:24.917Z,38.18
2018-02-19T05:59:24.826Z,38.2
2018-02-19T06:00:24.829Z,38.23
2018-02-19T06:01:24.814Z,38.23
2018-02-19T06:02:24.816Z,38.24
2018-02-19T06:03:24.818Z,38.23
2018-02-19T06:04:24.852Z,38.2
2018-02-19T06:05:24.824Z,38.17
2018-02-19T06:06:24.930Z,38.19
2018-02-19T06:07:24.819Z,38.2
2018-02-19T06:08:24.824Z,38.22
2018-02-19T06:09:24.830Z,38.21
2018-02-19T06:10:24.826Z,35.62
2018-02-19T06:11:24.813Z,36.73
2018-02-19T06:12:24.853Z,36.45
2018-02-19T06:13:24.816Z,36.73
2018-02-19T06:14:24.807Z,37.23
2018-02-19T06:15:24.810Z,37.33
2018-02-19T06:16:24.822Z,37.22
2018-02-19T06:17:24.811Z,37.22
2018-02-19T06:18:24.811Z,37.34
2018-02-19T06:19:24.818Z,37.39
2018-02-19T06:20:24.817Z,37.31
2018-02-19T06:21:24.816Z,37.23
2018-02-19T06:22:24.813Z,37.2
2018-02-19T06:23:24.806Z,37.26
2018-02-19T06:24:24.916Z,37.19
2018-02-19T06:25:24.815Z,37.21
2018-02-19T06:26:24.811Z,37.24
2018-02-19T06:27:24.811Z,37.27
2018-02-19T06:28:24.802Z,37.32
2018-02-19T06:29:24.816Z,37.3
2018-02-19T06:30:24.805Z,37.36
2018-02-19T06:31:24.804Z,37.3
2018-02-19T06:32:24.804Z,37.34
2018-02-19T06:33:24.812Z,37.36
2018-02-19T06:34:24.831Z,37.33
2018-02-19T06:35:24.808Z,37.41
2018-02-19T06:36:24.799Z,37.38
2018-02-19T06:37:24.810Z,37.36
2018-02-19T06:38:24.840Z,37.38
2018-02-19T06:39:24.838Z,37.39
2018-02-19T06:40:24.805Z,37.43
2018-02-19T06:41:24.803Z,37.51
2018-02-19T06:42:24.808Z,37.45
2018-02-19T06:43:24.899Z,37.48
2018-02-19T06:44:24.854Z,37.55
2018-02-19T06:45:24.805Z,37.59
2018-02-19T06:46:24.811Z,37.29
2018-02-19T06:47:24.815Z,37.04
2018-02-19T06:48:24.812Z,35.17
2018-02-19T06:49:24.814Z,33.9
2018-02-19T06:50:24.901Z,32.98
2018-02-19T06:51:24.817Z,32.95
2018-02-19T06:52:24.829Z,32.75
2018-02-19T06:53:24.796Z,32.29
2018-02-19T06:54:24.882Z,33.25
2018-02-19T06:55:24.822Z,33.39
2018-02-19T06:56:24.796Z,33.68
2018-02-19T06:57:24.828Z,33.73
2018-02-19T06:58:24.843Z,34.17
2018-02-19T06:59:24.828Z,34.32
2018-02-19T07:00:24.830Z,34.21
2018-02-19T07:01:24.799Z,34.44
2018-02-19T07:02:24.831Z,34.61
2018-02-19T07:03:24.809Z,34.49
2018-02-19T07:04:24.809Z,34.67
2018-02-19T07:05:24.796Z,34.8
2018-02-19T07:06:24.840Z,34.84
2018-02-19T07:07:24.813Z,34.83
2018-02-19T07:08:24.799Z,35
2018-02-19T07:09:24.815Z,35.11
2018-02-19T07:10:24.806Z,34.92
2018-02-19T07:11:24.832Z,34.13
2018-02-19T07:12:24.796Z,33.44
2018-02-19T07:13:24.823Z,33.56
2018-02-19T07:14:24.800Z,34.17
2018-02-19T07:15:24.800Z,34.31
2018-02-19T07:16:24.797Z,34.38
2018-02-19T07:17:24.798Z,34.39
2018-02-19T07:18:24.837Z,34.86
2018-02-19T07:19:24.797Z,34.91
2018-02-19T07:20:24.808Z,34.98
2018-02-19T07:21:24.796Z,34.87
2018-02-19T07:22:24.792Z,35
2018-02-19T07:23:24.818Z,34.99
2018-02-19T07:24:24.797Z,35.04
2018-02-19T07:25:24.798Z,35.22
2018-02-19T07:26:24.805Z,35.28
2018-02-19T07:27:24.809Z,35.41
2018-02-19T07:28:24.854Z,35.32
2018-02-19T07:29:24.813Z,35.39
2018-02-19T07:30:24.810Z,35.44
2018-02-19T07:31:24.804Z,35.42
2018-02-19T07:32:24.804Z,35.44
2018-02-19T07:33:24.852Z,35.51
2018-02-19T07:34:27.093Z,35.52
2018-02-19T07:35:24.812Z,35.56
2018-02-19T07:36:24.825Z,35.57
2018-02-19T07:37:24.810Z,35.54
2018-02-19T07:38:24.810Z,35.54
2018-02-19T07:39:24.807Z,35.67
2018-02-19T07:40:26.840Z,35.58
2018-02-19T07:41:24.815Z,35.66
2018-02-19T07:42:26.339Z,35.73
2018-02-19T07:43:26.829Z,35.74
2018-02-19T07:44:27.240Z,35.75
2018-02-19T07:45:24.816Z,35.62
2018-02-19T07:46:26.833Z,35.73
2018-02-19T07:47:26.831Z,35.74
2018-02-19T07:48:26.982Z,35.79
2018-02-19T07:49:24.820Z,35.79
2018-02-19T07:50:26.839Z,35.86
2018-02-19T07:51:24.819Z,35.81
2018-02-19T07:52:26.828Z,35.81
2018-02-19T07:53:24.813Z,35.89
2018-02-19T07:54:24.810Z,35.88
2018-02-19T07:55:26.784Z,35.89
2018-02-19T07:56:26.333Z,35.93
2018-02-19T07:57:24.814Z,35.95
2018-02-19T07:58:24.823Z,35.95
2018-02-19T07:59:24.821Z,35.95
2018-02-19T08:00:24.823Z,36.02
2018-02-19T08:01:26.578Z,35.98
2018-02-19T08:02:24.878Z,36.04
2018-02-19T08:03:24.817Z,35.98
2018-02-19T08:04:26.829Z,36.01
2018-02-19T08:05:24.822Z,36.04
2018-02-19T08:06:24.820Z,36.05
2018-02-19T08:07:24.821Z,36.07
2018-02-19T08:08:24.811Z,36.05
2018-02-19T08:09:24.819Z,36.1
2018-02-19T08:10:24.828Z,36.11
2018-02-19T08:11:24.849Z,36.07
2018-02-19T08:12:27.683Z,36.13
2018-02-19T08:13:24.811Z,36.12
2018-02-19T08:14:24.818Z,36.1
2018-02-19T08:15:24.902Z,36.17
2018-02-19T08:16:24.793Z,36.11
2018-02-19T08:17:25.339Z,36.21
2018-02-19T08:18:25.360Z,36.14
2018-02-19T08:19:24.816Z,36.12
2018-02-19T08:20:24.835Z,36.2
2018-02-19T08:21:24.822Z,36.12
2018-02-19T08:22:24.794Z,36.14
2018-02-19T08:23:25.368Z,36.27
2018-02-19T08:24:24.863Z,36.19
2018-02-19T08:25:24.910Z,36.28
2018-02-19T08:26:25.369Z,36.26
2018-02-19T08:27:24.801Z,36.25
2018-02-19T08:28:24.799Z,36.29
2018-02-19T08:29:24.820Z,36.28
2018-02-19T08:30:24.800Z,36.31
2018-02-19T08:31:24.802Z,36.29
2018-02-19T08:32:24.803Z,36.28
2018-02-19T08:33:27.067Z,36.31
2018-02-19T08:34:24.803Z,36.33
2018-02-19T08:35:25.350Z,36.32
2018-02-19T08:36:24.816Z,36.3
2018-02-19T08:37:24.806Z,36.36
2018-02-19T08:38:24.806Z,36.33
2018-02-19T08:39:24.808Z,36.33
2018-02-19T08:40:24.809Z,36.32
2018-02-19T08:41:24.930Z,36.38
2018-02-19T08:42:25.280Z,36.35
2018-02-19T08:43:24.812Z,36.35
2018-02-19T08:44:24.806Z,36.35
2018-02-19T08:45:24.813Z,36.34
2018-02-19T08:46:25.383Z,36.42
2018-02-19T08:47:25.283Z,36.34
2018-02-19T08:48:24.768Z,36.42
2018-02-19T08:49:24.770Z,36.42
2018-02-19T08:50:24.768Z,36.46
2018-02-19T08:51:24.817Z,36.38
2018-02-19T08:52:24.773Z,36.42
2018-02-19T08:53:24.774Z,36.42
2018-02-19T08:54:25.369Z,36.35
2018-02-19T08:55:24.774Z,36.42
2018-02-19T08:56:25.287Z,36.47
2018-02-19T08:57:24.758Z,36.42
2018-02-19T08:58:24.768Z,36.45
2018-02-19T08:59:24.776Z,36.42
2018-02-19T09:00:24.826Z,36.43
2018-02-19T09:01:25.390Z,36.51
2018-02-19T09:02:24.778Z,36.45
2018-02-19T09:03:24.761Z,36.5
2018-02-19T09:04:24.766Z,36.51
2018-02-19T09:05:25.381Z,36.46
2018-02-19T09:06:24.786Z,36.51
2018-02-19T09:07:24.822Z,36.5
2018-02-19T09:08:24.775Z,36.5
2018-02-19T09:09:24.759Z,36.54
2018-02-19T09:10:24.766Z,36.5
2018-02-19T09:11:24.765Z,36.46
2018-02-19T09:12:24.784Z,36.5
2018-02-19T09:13:24.765Z,36.5
2018-02-19T09:14:24.789Z,36.57
2018-02-19T09:15:24.766Z,36.51
2018-02-19T09:16:24.767Z,36.55
2018-02-19T09:17:24.838Z,36.62
2018-02-19T09:18:24.765Z,36.53
2018-02-19T09:19:24.769Z,36.49
2018-02-19T09:20:24.765Z,36.58
2018-02-19T09:21:24.769Z,36.58
2018-02-19T09:22:24.840Z,36.56
2018-02-19T09:23:24.773Z,36.63
2018-02-19T09:24:24.767Z,36.61
2018-02-19T09:25:24.761Z,36.55
2018-02-19T09:26:24.770Z,36.57
2018-02-19T09:27:25.032Z,36.63
2018-02-19T09:28:24.880Z,36.64
2018-02-19T09:29:24.754Z,36.52
2018-02-19T09:30:24.768Z,36.62
2018-02-19T09:31:24.754Z,36.63
2018-02-19T09:32:24.782Z,36.64
2018-02-19T09:33:24.806Z,36.61
2018-02-19T09:34:24.776Z,36.67
2018-02-19T09:35:24.751Z,36.59
2018-02-19T09:36:24.807Z,36.65
2018-02-19T09:37:24.760Z,36.6
2018-02-19T09:38:25.009Z,36.68
2018-02-19T09:39:24.779Z,36.67
2018-02-19T09:40:24.753Z,36.72
2018-02-19T09:41:24.752Z,36.62
2018-02-19T09:42:24.753Z,36.67
2018-02-19T09:43:24.760Z,36.7
2018-02-19T09:44:24.761Z,36.68
2018-02-19T09:45:24.757Z,36.68
2018-02-19T09:46:24.786Z,36.66
2018-02-19T09:47:24.886Z,36.69
2018-02-19T09:48:24.753Z,36.65
2018-02-19T09:49:24.764Z,36.71
2018-02-19T09:50:24.765Z,36.73
2018-02-19T09:51:24.772Z,36.71
2018-02-19T09:52:24.750Z,36.69
2018-02-19T09:53:24.759Z,36.7
2018-02-19T09:54:24.742Z,36.78
2018-02-19T09:55:24.863Z,36.68
2018-02-19T09:56:24.763Z,36.7
2018-02-19T09:57:24.750Z,36.77
2018-02-19T09:58:24.740Z,36.7
2018-02-19T09:59:24.769Z,36.73
2018-02-19T10:00:24.758Z,36.85
2018-02-19T10:01:24.758Z,36.74
2018-02-19T10:02:24.754Z,36.71
2018-02-19T10:03:24.870Z,36.75
2018-02-19T10:04:24.735Z,36.72
2018-02-19T10:05:24.774Z,36.76
2018-02-19T10:06:24.790Z,36.77
2018-02-19T10:07:24.761Z,36.78
2018-02-19T10:08:24.749Z,36.76
2018-02-19T10:09:24.747Z,36.74
2018-02-19T10:10:24.756Z,36.69
2018-02-19T10:11:24.748Z,36.82
2018-02-19T10:12:24.757Z,36.66
2018-02-19T10:13:24.747Z,36.72
2018-02-19T10:14:24.779Z,36.76
2018-02-19T10:15:24.804Z,36.69
2018-02-19T10:16:24.765Z,36.81
2018-02-19T10:17:24.761Z,36.78
2018-02-19T10:18:24.765Z,36.67
2018-02-19T10:19:24.762Z,36.68
2018-02-19T10:20:24.747Z,36.69
2018-02-19T10:21:24.765Z,36.71
2018-02-19T10:22:24.767Z,36.73
2018-02-19T10:23:24.767Z,36.7
2018-02-19T10:24:24.761Z,36.78
2018-02-19T10:25:24.839Z,36.63
2018-02-19T10:26:25.436Z,36.71
2018-02-19T10:27:24.749Z,36.79
2018-02-19T10:28:24.750Z,36.66
2018-02-19T10:29:24.745Z,36.72
2018-02-19T10:30:24.740Z,36.78
2018-02-19T10:31:24.739Z,36.76
2018-02-19T10:32:24.733Z,36.78
2018-02-19T10:33:24.743Z,36.66
2018-02-19T10:34:24.733Z,36.79
2018-02-19T10:35:24.734Z,36.73
2018-02-19T10:36:24.775Z,36.75
2018-02-19T10:37:24.760Z,36.63
2018-02-19T10:38:24.745Z,36.75
2018-02-19T10:39:24.744Z,36.77
2018-02-19T10:40:24.745Z,36.79
2018-02-19T10:41:24.739Z,36.71
2018-02-19T10:42:24.742Z,36.75
2018-02-19T10:43:24.735Z,36.74
2018-02-19T10:44:24.736Z,36.77
2018-02-19T10:45:24.725Z,36.74
2018-02-19T10:46:24.733Z,36.67
2018-02-19T10:47:24.736Z,36.74
2018-02-19T10:48:24.748Z,36.77
2018-02-19T10:49:24.740Z,36.75
2018-02-19T10:50:24.736Z,36.74
2018-02-19T10:51:24.741Z,36.79
2018-02-19T10:52:24.724Z,36.76
2018-02-19T10:53:24.731Z,36.81
2018-02-19T10:54:24.727Z,36.79
2018-02-19T10:55:24.720Z,36.84
2018-02-19T10:56:24.737Z,36.77
2018-02-19T10:57:24.740Z,36.77
2018-02-19T10:58:24.734Z,36.77
2018-02-19T10:59:24.728Z,36.67
2018-02-19T11:00:24.752Z,36.77
2018-02-19T11:01:24.726Z,36.74
2018-02-19T11:02:24.724Z,36.68
2018-02-19T11:03:24.738Z,36.74
2018-02-19T11:04:24.719Z,36.86
2018-02-19T11:05:24.726Z,36.61
2018-02-19T11:06:24.754Z,36.78
2018-02-19T11:07:26.913Z,36.77
2018-02-19T11:08:26.264Z,36.81
2018-02-19T11:09:24.749Z,36.78
2018-02-19T11:10:24.736Z,36.7
2018-02-19T11:11:24.750Z,36.74
2018-02-19T11:12:24.732Z,36.8
2018-02-19T11:13:24.843Z,36.78
2018-02-19T11:14:24.734Z,36.76
2018-02-19T11:15:24.722Z,36.66
2018-02-19T11:16:24.743Z,36.7
2018-02-19T11:17:24.734Z,36.72
2018-02-19T11:18:24.726Z,36.81
2018-02-19T11:19:24.722Z,36.83
2018-02-19T11:20:24.815Z,36.77
2018-02-19T11:21:24.757Z,36.7
2018-02-19T11:22:26.254Z,36.77
2018-02-19T11:23:24.740Z,36.67
2018-02-19T11:24:24.734Z,36.75
2018-02-19T11:25:24.716Z,36.69
2018-02-19T11:26:24.756Z,36.74
2018-02-19T11:27:24.730Z,36.76
2018-02-19T11:28:24.754Z,36.92
2018-02-19T11:29:24.755Z,36.7
2018-02-19T11:30:24.754Z,36.76
2018-02-19T11:31:24.764Z,36.79
2018-02-19T11:32:24.736Z,36.79
2018-02-19T11:33:24.735Z,36.67
2018-02-19T11:34:24.720Z,36.72
2018-02-19T11:35:24.709Z,36.71
2018-02-19T11:36:24.750Z,36.75
2018-02-19T11:37:24.749Z,36.77
2018-02-19T11:38:24.727Z,36.78
2018-02-19T11:39:24.833Z,36.8
2018-02-19T11:40:24.738Z,36.74
2018-02-19T11:41:24.768Z,36.76
2018-02-19T11:42:24.710Z,36.78
2018-02-19T11:43:24.730Z,36.77
2018-02-19T11:44:24.707Z,36.69
2018-02-19T11:45:24.713Z,36.66
2018-02-19T11:46:24.765Z,36.82
2018-02-19T11:47:24.716Z,36.75
2018-02-19T11:48:24.735Z,36.73
2018-02-19T11:49:24.768Z,36.72
2018-02-19T11:50:24.706Z,36.78
2018-02-19T11:51:24.736Z,36.72
2018-02-19T11:52:25.370Z,36.83
2018-02-19T11:53:24.716Z,36.7
2018-02-19T11:54:24.712Z,36.74
2018-02-19T11:55:24.718Z,36.83
2018-02-19T11:56:24.710Z,36.8
2018-02-19T11:57:24.718Z,36.68
2018-02-19T11:58:24.718Z,36.82
2018-02-19T11:59:24.719Z,36.71
2018-02-19T12:00:24.713Z,36.77
2018-02-19T12:01:24.715Z,36.72
2018-02-19T12:02:24.725Z,36.76
2018-02-19T12:03:24.721Z,36.76
2018-02-19T12:04:24.725Z,36.82
2018-02-19T12:05:24.695Z,36.82
2018-02-19T12:06:24.725Z,36.8
2018-02-19T12:07:24.691Z,36.72
2018-02-19T12:08:24.720Z,36.78
2018-02-19T12:09:24.697Z,36.73
2018-02-19T12:10:24.689Z,36.79
2018-02-19T12:11:24.704Z,36.71
2018-02-19T12:12:24.799Z,36.8
2018-02-19T12:13:24.698Z,36.75
2018-02-19T12:14:24.705Z,36.68
2018-02-19T12:15:24.687Z,36.76
2018-02-19T12:16:24.698Z,36.7
2018-02-19T12:17:24.689Z,36.72
2018-02-19T12:18:24.697Z,36.79
2018-02-19T12:19:24.695Z,36.76
2018-02-19T12:20:24.708Z,36.7
2018-02-19T12:21:24.696Z,36.72
2018-02-19T12:22:24.700Z,36.74
2018-02-19T12:23:24.710Z,36.68
2018-02-19T12:24:24.703Z,36.76
2018-02-19T12:25:24.686Z,36.78
2018-02-19T12:26:24.804Z,36.77
2018-02-19T12:27:24.680Z,36.73
2018-02-19T12:28:24.705Z,36.76
2018-02-19T12:29:24.679Z,36.79
2018-02-19T12:30:24.676Z,36.72
2018-02-19T12:31:24.689Z,36.92
2018-02-19T12:32:24.682Z,36.79
2018-02-19T12:33:24.688Z,36.78
2018-02-19T12:34:24.764Z,36.79
2018-02-19T12:35:24.681Z,36.76
2018-02-19T12:36:24.679Z,36.75
2018-02-19T12:37:24.685Z,36.8
2018-02-19T12:38:24.692Z,36.68
2018-02-19T12:39:24.677Z,36.8
2018-02-19T12:40:24.676Z,36.75
2018-02-19T12:41:24.688Z,36.75
2018-02-19T12:42:24.683Z,36.76
2018-02-19T12:43:24.686Z,36.79
2018-02-19T12:44:24.691Z,36.7
2018-02-19T12:49:41.513Z,36.91
2018-02-19T12:50:41.063Z,36.93
2018-02-19T12:51:41.073Z,37.01
2018-02-19T12:52:41.065Z,36.95
2018-02-19T12:53:41.064Z,36.94
2018-02-19T12:54:41.069Z,36.83
2018-02-19T12:55:41.083Z,36.68
2018-02-19T12:56:41.079Z,36.58
2018-02-19T12:57:41.064Z,36.74
2018-02-19T12:58:41.055Z,36.73
2018-02-19T12:59:41.060Z,36.81